createdAt,value
2016-10-27T00:00:27.414Z,18.34
2016-10-27T00:01:00.570Z,18.36
2016-10-27T00:01:32.897Z,18.47
2016-10-27T00:02:05.233Z,18.35
2016-10-27T00:02:37.558Z,18.32
2016-10-27T00:03:09.881Z,18.44
2016-10-27T00:03:42.279Z,18.31
2016-10-27T00:04:14.620Z,18.29
2016-10-27T00:04:46.937Z,18.35
2016-10-27T00:05:19.255Z,18.35
2016-10-27T00:05:51.571Z,18.32
2016-10-27T00:06:23.897Z,18.32
2016-10-27T00:06:56.220Z,18.34
2016-10-27T00:07:28.545Z,18.34
2016-10-27T00:08:00.851Z,18.31
2016-10-27T00:08:33.164Z,18.38
2016-10-27T00:09:05.493Z,18.35
2016-10-27T00:09:37.834Z,18.32
2016-10-27T00:10:10.166Z,18.27
2016-10-27T00:10:42.505Z,18.32
2016-10-27T00:11:14.829Z,18.27
2016-10-27T00:11:47.158Z,18.35
2016-10-27T00:12:19.527Z,18.34
2016-10-27T00:12:51.858Z,18.35
2016-10-27T00:13:24.170Z,18.34
2016-10-27T00:13:56.492Z,18.24
2016-10-27T00:14:28.813Z,18.34
2016-10-27T00:15:01.124Z,18.31
2016-10-27T00:15:33.443Z,18.39
2016-10-27T00:16:05.789Z,18.39
2016-10-27T00:16:38.124Z,18.34
2016-10-27T00:17:10.466Z,18.27
2016-10-27T00:17:42.783Z,18.34
2016-10-27T00:18:15.110Z,18.39
2016-10-27T00:18:47.445Z,18.29
2016-10-27T00:19:19.756Z,18.34
2016-10-27T00:19:52.086Z,18.35
2016-10-27T00:20:24.449Z,18.34
2016-10-27T00:20:56.787Z,18.29
2016-10-27T00:21:29.110Z,18.34
2016-10-27T00:22:01.434Z,18.31
2016-10-27T00:22:33.774Z,18.31
2016-10-27T00:23:06.085Z,18.39
2016-10-27T00:23:38.424Z,18.38
2016-10-27T00:24:10.740Z,18.35
2016-10-27T00:24:43.059Z,18.32
2016-10-27T00:25:15.380Z,18.32
2016-10-27T00:25:47.702Z,18.41
2016-10-27T00:26:20.033Z,18.44
2016-10-27T00:26:52.363Z,18.42
2016-10-27T00:27:24.686Z,18.31
2016-10-27T00:27:56.996Z,18.38
2016-10-27T00:28:29.321Z,18.39
2016-10-27T00:29:01.623Z,18.36
2016-10-27T00:29:33.959Z,18.35
2016-10-27T00:30:06.276Z,18.39
2016-10-27T00:30:38.607Z,18.39
2016-10-27T00:31:10.928Z,18.34
2016-10-27T00:31:43.237Z,18.38
2016-10-27T00:32:15.566Z,18.41
2016-10-27T00:32:47.888Z,18.44
2016-10-27T00:33:20.248Z,18.34
2016-10-27T00:33:52.570Z,18.36
2016-10-27T00:34:24.906Z,18.38
2016-10-27T00:34:57.223Z,18.35
2016-10-27T00:35:29.552Z,18.36
2016-10-27T00:36:01.883Z,18.34
2016-10-27T00:36:34.203Z,18.41
2016-10-27T00:37:06.531Z,18.39
2016-10-27T00:37:38.899Z,18.39
2016-10-27T00:38:11.208Z,18.35
2016-10-27T00:38:43.524Z,18.34
2016-10-27T00:39:15.883Z,18.38
2016-10-27T00:39:48.208Z,18.27
2016-10-27T00:40:20.534Z,18.35
2016-10-27T00:40:52.879Z,18.27
2016-10-27T00:41:25.190Z,18.39
2016-10-27T00:41:57.539Z,18.39
2016-10-27T00:42:29.877Z,18.39
2016-10-27T00:43:02.196Z,18.39
2016-10-27T00:43:34.530Z,18.38
2016-10-27T00:44:06.859Z,18.41
2016-10-27T00:44:39.192Z,18.39
2016-10-27T00:45:11.525Z,18.36
2016-10-27T00:45:43.857Z,18.35
2016-10-27T00:46:16.183Z,18.39
2016-10-27T00:46:48.513Z,18.38
2016-10-27T00:47:20.865Z,18.42
2016-10-27T00:47:53.231Z,18.39
2016-10-27T00:48:25.544Z,18.44
2016-10-27T00:48:57.874Z,18.39
2016-10-27T00:49:30.196Z,18.35
2016-10-27T00:50:02.524Z,18.35
2016-10-27T00:50:34.861Z,18.36
2016-10-27T00:51:07.194Z,18.38
2016-10-27T00:51:39.521Z,18.39
2016-10-27T00:52:11.847Z,18.42
2016-10-27T00:52:44.185Z,18.47
2016-10-27T00:53:16.509Z,18.27
2016-10-27T00:53:48.840Z,18.39
2016-10-27T00:54:21.179Z,18.27
2016-10-27T00:54:53.501Z,18.38
2016-10-27T00:55:25.822Z,18.35
2016-10-27T00:55:58.154Z,18.39
2016-10-27T00:56:30.497Z,18.41
2016-10-27T00:57:02.829Z,18.41
2016-10-27T00:57:35.169Z,18.38
2016-10-27T00:58:07.475Z,18.39
2016-10-27T00:58:39.810Z,18.34
2016-10-27T00:59:12.147Z,18.42
2016-10-27T00:59:44.480Z,18.35
2016-10-27T01:00:16.808Z,18.44
2016-10-27T01:00:49.167Z,18.5
2016-10-27T01:01:21.502Z,18.38
2016-10-27T01:01:53.827Z,18.39
2016-10-27T01:02:26.156Z,18.36
2016-10-27T01:02:58.489Z,18.44
2016-10-27T01:03:30.817Z,18.42
2016-10-27T01:04:03.141Z,18.35
2016-10-27T01:04:35.463Z,18.39
2016-10-27T01:05:07.822Z,18.35
2016-10-27T01:05:40.153Z,18.42
2016-10-27T01:06:12.479Z,18.34
2016-10-27T01:06:44.791Z,18.39
2016-10-27T01:07:17.110Z,18.39
2016-10-27T01:07:49.424Z,18.31
2016-10-27T01:08:21.784Z,18.45
2016-10-27T01:08:54.158Z,18.42
2016-10-27T01:09:26.484Z,18.35
2016-10-27T01:09:58.796Z,18.41
2016-10-27T01:10:31.118Z,18.36
2016-10-27T01:11:03.457Z,18.35
2016-10-27T01:11:35.769Z,18.27
2016-10-27T01:12:08.094Z,18.42
2016-10-27T01:12:40.421Z,18.39
2016-10-27T01:13:12.752Z,18.39
2016-10-27T01:13:45.085Z,18.39
2016-10-27T01:14:17.415Z,18.42
2016-10-27T01:14:49.753Z,18.42
2016-10-27T01:15:22.068Z,18.41
2016-10-27T01:15:54.391Z,18.38
2016-10-27T01:16:26.715Z,18.35
2016-10-27T01:16:59.049Z,18.41
2016-10-27T01:17:31.427Z,18.39
2016-10-27T01:18:03.743Z,18.38
2016-10-27T01:18:36.076Z,18.35
2016-10-27T01:19:08.401Z,18.38
2016-10-27T01:19:40.763Z,18.38
2016-10-27T01:20:13.088Z,18.35
2016-10-27T01:20:45.404Z,18.36
2016-10-27T01:21:17.738Z,18.41
2016-10-27T01:21:50.096Z,18.35
2016-10-27T01:22:22.422Z,18.34
2016-10-27T01:22:54.753Z,18.29
2016-10-27T01:23:27.076Z,18.32
2016-10-27T01:23:59.397Z,18.42
2016-10-27T01:24:31.706Z,18.38
2016-10-27T01:25:04.026Z,18.42
2016-10-27T01:25:36.352Z,18.41
2016-10-27T01:26:08.697Z,18.32
2016-10-27T01:26:41.016Z,18.39
2016-10-27T01:27:13.352Z,18.27
2016-10-27T01:27:45.684Z,18.35
2016-10-27T01:28:18.015Z,18.44
2016-10-27T01:28:50.345Z,18.41
2016-10-27T01:29:22.664Z,18.42
2016-10-27T01:29:54.985Z,18.41
2016-10-27T01:30:27.315Z,18.38
2016-10-27T01:30:59.650Z,18.36
2016-10-27T01:31:31.971Z,18.44
2016-10-27T01:32:04.288Z,18.38
2016-10-27T01:32:36.608Z,18.44
2016-10-27T01:33:08.918Z,18.41
2016-10-27T01:33:41.234Z,18.31
2016-10-27T01:34:13.575Z,18.35
2016-10-27T01:34:45.896Z,18.38
2016-10-27T01:35:18.227Z,18.32
2016-10-27T01:35:50.544Z,18.39
2016-10-27T01:36:22.865Z,18.38
2016-10-27T01:36:55.231Z,18.29
2016-10-27T01:37:27.554Z,18.39
2016-10-27T01:37:59.891Z,18.42
2016-10-27T01:38:32.274Z,18.32
2016-10-27T01:39:04.604Z,18.42
2016-10-27T01:39:36.953Z,18.34
2016-10-27T01:40:09.309Z,18.38
2016-10-27T01:40:41.628Z,18.38
2016-10-27T01:41:13.956Z,18.35
2016-10-27T01:41:46.291Z,18.39
2016-10-27T01:42:18.617Z,18.35
2016-10-27T01:42:50.961Z,18.41
2016-10-27T01:43:23.276Z,18.38
2016-10-27T01:43:55.601Z,18.39
2016-10-27T01:44:27.957Z,18.41
2016-10-27T01:45:00.282Z,18.47
2016-10-27T01:45:32.645Z,18.44
2016-10-27T01:46:04.973Z,18.31
2016-10-27T01:46:37.315Z,18.29
2016-10-27T01:47:09.640Z,18.41
2016-10-27T01:47:41.967Z,18.41
2016-10-27T01:48:14.298Z,18.44
2016-10-27T01:48:46.626Z,18.38
2016-10-27T01:49:18.956Z,18.39
2016-10-27T01:49:51.307Z,18.35
2016-10-27T01:50:23.637Z,18.42
2016-10-27T01:50:55.955Z,18.35
2016-10-27T01:51:28.283Z,18.38
2016-10-27T01:52:00.607Z,18.38
2016-10-27T01:52:32.951Z,18.44
2016-10-27T01:53:05.279Z,18.29
2016-10-27T01:53:37.587Z,18.35
2016-10-27T01:54:09.919Z,18.38
2016-10-27T01:54:42.244Z,18.39
2016-10-27T01:55:14.560Z,18.45
2016-10-27T01:55:46.934Z,18.36
2016-10-27T01:56:19.259Z,18.31
2016-10-27T01:56:51.591Z,18.32
2016-10-27T01:57:23.926Z,18.41
2016-10-27T01:57:56.247Z,18.39
2016-10-27T01:58:28.569Z,18.41
2016-10-27T01:59:00.899Z,18.41
2016-10-27T01:59:33.228Z,18.29
2016-10-27T02:00:05.554Z,18.29
2016-10-27T02:00:37.882Z,18.39
2016-10-27T02:01:10.202Z,18.41
2016-10-27T02:01:42.539Z,18.41
2016-10-27T02:02:14.855Z,18.32
2016-10-27T02:02:47.178Z,18.39
2016-10-27T02:03:19.514Z,18.35
2016-10-27T02:03:51.864Z,18.38
2016-10-27T02:04:24.201Z,18.36
2016-10-27T02:04:56.520Z,18.44
2016-10-27T02:05:28.871Z,18.39
2016-10-27T02:06:01.192Z,18.32
2016-10-27T02:06:33.571Z,18.38
2016-10-27T02:07:05.908Z,18.38
2016-10-27T02:07:38.238Z,18.36
2016-10-27T02:08:10.555Z,18.38
2016-10-27T02:08:42.903Z,18.35
2016-10-27T02:09:15.215Z,18.44
2016-10-27T02:09:47.553Z,18.35
2016-10-27T02:10:19.926Z,18.39
2016-10-27T02:10:52.242Z,18.35
2016-10-27T02:11:24.582Z,18.31
2016-10-27T02:11:56.918Z,18.44
2016-10-27T02:12:29.245Z,18.39
2016-10-27T02:13:01.568Z,18.38
2016-10-27T02:13:33.900Z,18.35
2016-10-27T02:14:06.235Z,18.35
2016-10-27T02:14:38.561Z,18.38
2016-10-27T02:15:10.872Z,18.38
2016-10-27T02:15:43.223Z,18.36
2016-10-27T02:16:15.548Z,18.42
2016-10-27T02:16:47.869Z,18.39
2016-10-27T02:17:20.190Z,18.38
2016-10-27T02:17:52.516Z,18.39
2016-10-27T02:18:24.846Z,18.36
2016-10-27T02:18:57.171Z,18.36
2016-10-27T02:19:29.527Z,18.39
2016-10-27T02:20:01.838Z,18.38
2016-10-27T02:20:34.175Z,18.5
2016-10-27T02:21:06.520Z,18.39
2016-10-27T02:21:38.871Z,18.35
2016-10-27T02:22:11.193Z,18.41
2016-10-27T02:22:43.520Z,18.39
2016-10-27T02:23:15.849Z,18.35
2016-10-27T02:23:48.177Z,18.35
2016-10-27T02:24:20.506Z,18.42
2016-10-27T02:24:52.831Z,18.29
2016-10-27T02:25:25.159Z,18.38
2016-10-27T02:25:57.490Z,18.36
2016-10-27T02:26:29.827Z,18.45
2016-10-27T02:27:02.141Z,18.45
2016-10-27T02:27:34.464Z,18.29
2016-10-27T02:28:06.788Z,18.38
2016-10-27T02:28:39.115Z,18.36
2016-10-27T02:29:11.457Z,18.44
2016-10-27T02:29:43.877Z,18.36
2016-10-27T02:30:16.200Z,18.36
2016-10-27T02:30:48.517Z,18.38
2016-10-27T02:31:20.822Z,18.35
2016-10-27T02:31:53.153Z,18.36
2016-10-27T02:32:25.487Z,18.38
2016-10-27T02:32:57.815Z,18.38
2016-10-27T02:33:30.161Z,18.38
2016-10-27T02:34:02.498Z,18.32
2016-10-27T02:34:34.840Z,18.39
2016-10-27T02:35:07.171Z,18.31
2016-10-27T02:35:39.497Z,18.39
2016-10-27T02:36:11.852Z,18.39
2016-10-27T02:36:44.192Z,18.49
2016-10-27T02:37:16.517Z,18.45
2016-10-27T02:37:48.845Z,18.35
2016-10-27T02:38:21.198Z,18.32
2016-10-27T02:38:53.519Z,18.41
2016-10-27T02:39:25.847Z,18.39
2016-10-27T02:39:58.222Z,18.41
2016-10-27T02:40:30.569Z,18.36
2016-10-27T02:41:02.921Z,18.39
2016-10-27T02:41:35.240Z,18.45
2016-10-27T02:42:07.576Z,18.41
2016-10-27T02:42:39.895Z,18.36
2016-10-27T02:43:12.219Z,18.36
2016-10-27T02:43:44.551Z,18.35
2016-10-27T02:44:16.879Z,18.32
2016-10-27T02:44:49.209Z,18.36
2016-10-27T02:45:21.525Z,18.42
2016-10-27T02:45:53.869Z,18.39
2016-10-27T02:46:26.190Z,18.32
2016-10-27T02:46:58.520Z,18.42
2016-10-27T02:47:30.827Z,18.39
2016-10-27T02:48:03.151Z,18.34
2016-10-27T02:48:35.486Z,18.38
2016-10-27T02:49:07.789Z,18.35
2016-10-27T02:49:40.110Z,18.38
2016-10-27T02:50:12.435Z,18.41
2016-10-27T02:50:44.760Z,18.42
2016-10-27T02:51:17.080Z,18.29
2016-10-27T02:51:49.393Z,18.42
2016-10-27T02:52:21.720Z,18.36
2016-10-27T02:52:54.051Z,18.34
2016-10-27T02:53:26.380Z,18.35
2016-10-27T02:53:58.722Z,18.38
2016-10-27T02:54:31.056Z,18.34
2016-10-27T02:55:03.391Z,18.39
2016-10-27T02:55:35.723Z,18.36
2016-10-27T02:56:08.060Z,18.42
2016-10-27T02:56:40.395Z,18.32
2016-10-27T02:57:12.722Z,18.39
2016-10-27T02:57:45.039Z,18.35
2016-10-27T02:58:17.363Z,18.38
2016-10-27T02:58:49.725Z,18.45
2016-10-27T02:59:22.042Z,18.45
2016-10-27T02:59:54.368Z,18.38
2016-10-27T03:00:26.681Z,18.38
2016-10-27T03:00:59.013Z,18.36
2016-10-27T03:01:31.342Z,18.31
2016-10-27T03:02:03.671Z,18.39
2016-10-27T03:02:35.993Z,18.41
2016-10-27T03:03:08.325Z,18.38
2016-10-27T03:03:40.640Z,18.39
2016-10-27T03:04:12.964Z,18.41
2016-10-27T03:04:45.291Z,18.32
2016-10-27T03:05:17.631Z,18.38
2016-10-27T03:05:49.961Z,18.39
2016-10-27T03:06:22.292Z,18.45
2016-10-27T03:06:54.633Z,18.35
2016-10-27T03:07:26.994Z,18.41
2016-10-27T03:07:59.331Z,18.36
2016-10-27T03:08:31.659Z,18.42
2016-10-27T03:09:03.985Z,18.36
2016-10-27T03:09:36.305Z,18.42
2016-10-27T03:10:08.630Z,18.36
2016-10-27T03:10:40.969Z,18.38
2016-10-27T03:11:13.289Z,18.38
2016-10-27T03:11:45.624Z,18.36
2016-10-27T03:12:17.991Z,18.39
2016-10-27T03:12:50.304Z,18.44
2016-10-27T03:13:22.627Z,18.41
2016-10-27T03:13:54.936Z,18.32
2016-10-27T03:14:27.271Z,18.49
2016-10-27T03:14:59.583Z,18.45
2016-10-27T03:15:31.893Z,18.41
2016-10-27T03:16:04.219Z,18.41
2016-10-27T03:16:36.555Z,18.41
2016-10-27T03:17:08.891Z,18.42
2016-10-27T03:17:41.249Z,18.41
2016-10-27T03:18:13.586Z,18.38
2016-10-27T03:18:45.922Z,18.36
2016-10-27T03:19:18.249Z,18.42
2016-10-27T03:19:50.590Z,18.49
2016-10-27T03:20:22.919Z,18.45
2016-10-27T03:20:55.243Z,18.38
2016-10-27T03:21:27.552Z,18.42
2016-10-27T03:21:59.881Z,18.41
2016-10-27T03:22:32.197Z,18.42
2016-10-27T03:23:04.530Z,18.42
2016-10-27T03:23:36.863Z,18.41
2016-10-27T03:24:09.235Z,18.36
2016-10-27T03:24:41.553Z,18.41
2016-10-27T03:25:13.867Z,18.45
2016-10-27T03:25:46.188Z,18.38
2016-10-27T03:26:18.511Z,18.39
2016-10-27T03:26:50.819Z,18.39
2016-10-27T03:27:23.150Z,18.36
2016-10-27T03:27:55.519Z,18.41
2016-10-27T03:28:27.853Z,18.32
2016-10-27T03:29:00.173Z,18.39
2016-10-27T03:29:32.502Z,18.45
2016-10-27T03:30:04.828Z,18.47
2016-10-27T03:30:37.161Z,18.38
2016-10-27T03:31:09.522Z,18.44
2016-10-27T03:31:41.861Z,18.35
2016-10-27T03:32:14.191Z,18.47
2016-10-27T03:32:46.514Z,18.35
2016-10-27T03:33:18.829Z,18.47
2016-10-27T03:33:51.147Z,18.38
2016-10-27T03:34:23.466Z,18.41
2016-10-27T03:34:55.808Z,18.41
2016-10-27T03:35:28.121Z,18.42
2016-10-27T03:36:00.458Z,18.44
2016-10-27T03:36:32.772Z,18.35
2016-10-27T03:37:05.085Z,18.41
2016-10-27T03:37:37.443Z,18.47
2016-10-27T03:38:09.768Z,18.5
2016-10-27T03:38:42.104Z,18.45
2016-10-27T03:39:14.450Z,18.35
2016-10-27T03:39:46.779Z,18.41
2016-10-27T03:40:19.108Z,18.42
2016-10-27T03:40:51.436Z,18.38
2016-10-27T03:41:23.752Z,18.42
2016-10-27T03:41:56.078Z,18.44
2016-10-27T03:42:28.400Z,18.44
2016-10-27T03:43:00.725Z,18.39
2016-10-27T03:43:33.051Z,18.45
2016-10-27T03:44:05.379Z,18.36
2016-10-27T03:44:37.749Z,18.38
2016-10-27T03:45:10.071Z,18.42
2016-10-27T03:45:42.405Z,18.44
2016-10-27T03:46:15.701Z,18.38
2016-10-27T03:46:48.019Z,18.38
2016-10-27T03:47:20.326Z,18.38
2016-10-27T03:47:52.635Z,18.38
2016-10-27T03:48:24.957Z,18.47
2016-10-27T03:48:57.285Z,18.42
2016-10-27T03:49:29.610Z,18.45
2016-10-27T03:50:01.927Z,18.49
2016-10-27T03:50:34.262Z,18.49
2016-10-27T03:51:06.591Z,18.44
2016-10-27T03:51:38.939Z,18.42
2016-10-27T03:52:11.303Z,18.44
2016-10-27T03:52:43.640Z,18.42
2016-10-27T03:53:15.954Z,18.39
2016-10-27T03:53:48.311Z,18.42
2016-10-27T03:54:20.638Z,18.42
2016-10-27T03:54:52.960Z,18.47
2016-10-27T03:55:25.331Z,18.41
2016-10-27T03:55:57.675Z,18.44
2016-10-27T03:56:29.989Z,18.42
2016-10-27T03:57:02.319Z,18.42
2016-10-27T03:57:34.639Z,18.44
2016-10-27T03:58:06.953Z,18.41
2016-10-27T03:58:39.282Z,18.47
2016-10-27T03:59:11.620Z,18.39
2016-10-27T03:59:43.946Z,18.38
2016-10-27T04:00:16.278Z,18.41
2016-10-27T04:00:48.626Z,18.41
2016-10-27T04:01:20.939Z,18.32
2016-10-27T04:01:53.268Z,18.42
2016-10-27T04:02:25.600Z,18.41
2016-10-27T04:02:57.937Z,18.38
2016-10-27T04:03:30.269Z,18.44
2016-10-27T04:04:02.610Z,18.38
2016-10-27T04:04:34.951Z,18.42
2016-10-27T04:05:07.278Z,18.41
2016-10-27T04:05:39.632Z,18.44
2016-10-27T04:06:11.944Z,18.42
2016-10-27T04:06:44.284Z,18.45
2016-10-27T04:07:16.604Z,18.44
2016-10-27T04:07:48.932Z,18.42
2016-10-27T04:08:21.245Z,18.44
2016-10-27T04:08:53.564Z,18.45
2016-10-27T04:09:25.893Z,18.38
2016-10-27T04:09:58.237Z,18.44
2016-10-27T04:10:30.592Z,18.39
2016-10-27T04:11:02.922Z,18.44
2016-10-27T04:11:35.243Z,18.39
2016-10-27T04:12:07.564Z,18.41
2016-10-27T04:12:39.899Z,18.41
2016-10-27T04:13:12.231Z,18.44
2016-10-27T04:13:44.544Z,18.47
2016-10-27T04:14:16.867Z,18.41
2016-10-27T04:14:49.191Z,18.44
2016-10-27T04:15:21.506Z,18.44
2016-10-27T04:15:53.836Z,18.44
2016-10-27T04:16:26.165Z,18.44
2016-10-27T04:16:58.488Z,18.44
2016-10-27T04:17:30.797Z,18.39
2016-10-27T04:18:03.133Z,18.45
2016-10-27T04:18:35.456Z,18.44
2016-10-27T04:19:07.781Z,18.41
2016-10-27T04:19:40.112Z,18.41
2016-10-27T04:20:12.451Z,18.44
2016-10-27T04:20:44.756Z,18.42
2016-10-27T04:21:17.083Z,18.41
2016-10-27T04:21:49.412Z,18.38
2016-10-27T04:22:21.717Z,18.42
2016-10-27T04:22:54.074Z,18.45
2016-10-27T04:23:26.438Z,18.41
2016-10-27T04:23:58.774Z,18.42
2016-10-27T04:24:31.115Z,18.38
2016-10-27T04:25:03.458Z,18.42
2016-10-27T04:25:35.794Z,18.42
2016-10-27T04:26:08.119Z,18.42
2016-10-27T04:26:40.441Z,18.5
2016-10-27T04:27:12.769Z,18.41
2016-10-27T04:27:45.099Z,18.47
2016-10-27T04:28:17.421Z,18.38
2016-10-27T04:28:49.773Z,18.45
2016-10-27T04:29:22.105Z,18.42
2016-10-27T04:29:54.465Z,18.42
2016-10-27T04:30:26.818Z,18.39
2016-10-27T04:30:59.142Z,18.45
2016-10-27T04:31:31.474Z,18.44
2016-10-27T04:32:03.820Z,18.41
2016-10-27T04:32:36.156Z,18.39
2016-10-27T04:33:08.482Z,18.45
2016-10-27T04:33:40.806Z,18.49
2016-10-27T04:34:13.149Z,18.44
2016-10-27T04:34:45.467Z,18.49
2016-10-27T04:35:17.846Z,18.45
2016-10-27T04:35:50.205Z,18.45
2016-10-27T04:36:22.531Z,18.44
2016-10-27T04:36:54.846Z,18.42
2016-10-27T04:37:27.166Z,18.44
2016-10-27T04:37:59.499Z,18.41
2016-10-27T04:38:31.847Z,18.49
2016-10-27T04:39:04.166Z,18.42
2016-10-27T04:39:36.492Z,18.44
2016-10-27T04:40:08.802Z,18.41
2016-10-27T04:40:41.129Z,18.47
2016-10-27T04:41:13.466Z,18.47
2016-10-27T04:41:45.801Z,18.39
2016-10-27T04:42:18.126Z,18.44
2016-10-27T04:42:50.443Z,18.44
2016-10-27T04:43:22.753Z,18.45
2016-10-27T04:43:55.084Z,18.47
2016-10-27T04:44:27.404Z,18.44
2016-10-27T04:44:59.714Z,18.38
2016-10-27T04:45:32.048Z,18.39
2016-10-27T04:46:04.374Z,18.45
2016-10-27T04:46:36.704Z,18.44
2016-10-27T04:47:09.043Z,18.44
2016-10-27T04:47:41.367Z,18.42
2016-10-27T04:48:13.711Z,18.39
2016-10-27T04:48:46.048Z,18.41
2016-10-27T04:49:18.381Z,18.41
2016-10-27T04:49:50.733Z,18.45
2016-10-27T04:50:23.074Z,18.41
2016-10-27T04:50:55.400Z,18.42
2016-10-27T04:51:27.765Z,18.42
2016-10-27T04:52:00.113Z,18.47
2016-10-27T04:52:32.439Z,18.42
2016-10-27T04:53:04.753Z,18.44
2016-10-27T04:53:37.315Z,18.45
2016-10-27T04:54:09.670Z,18.47
2016-10-27T04:54:42.007Z,18.44
2016-10-27T04:55:14.333Z,18.47
2016-10-27T04:55:46.650Z,18.41
2016-10-27T04:56:18.984Z,18.45
2016-10-27T04:56:51.307Z,18.42
2016-10-27T04:57:23.626Z,18.42
2016-10-27T04:57:55.998Z,18.44
2016-10-27T04:58:28.340Z,18.42
2016-10-27T04:59:00.678Z,18.45
2016-10-27T04:59:32.999Z,18.47
2016-10-27T05:00:05.318Z,18.45
2016-10-27T05:00:37.626Z,18.41
2016-10-27T05:01:09.957Z,18.45
2016-10-27T05:01:42.325Z,18.41
2016-10-27T05:02:14.646Z,18.41
2016-10-27T05:02:46.959Z,18.44
2016-10-27T05:03:19.300Z,18.42
2016-10-27T05:03:51.666Z,18.44
2016-10-27T05:04:23.986Z,18.42
2016-10-27T05:04:56.309Z,18.44
2016-10-27T05:05:28.638Z,18.49
2016-10-27T05:06:01.001Z,18.41
2016-10-27T05:06:33.327Z,18.44
2016-10-27T05:07:05.659Z,18.41
2016-10-27T05:07:38.017Z,18.45
2016-10-27T05:08:10.392Z,18.47
2016-10-27T05:08:43.677Z,18.44
2016-10-27T05:09:16.827Z,18.42
2016-10-27T05:09:49.163Z,18.38
2016-10-27T05:10:21.495Z,18.42
2016-10-27T05:10:53.824Z,18.47
2016-10-27T05:11:26.140Z,18.39
2016-10-27T05:11:58.483Z,18.39
2016-10-27T05:12:30.804Z,18.39
2016-10-27T05:13:03.127Z,18.45
2016-10-27T05:13:35.446Z,18.47
2016-10-27T05:14:07.778Z,18.41
2016-10-27T05:14:40.107Z,18.47
2016-10-27T05:15:12.436Z,18.42
2016-10-27T05:15:44.766Z,18.42
2016-10-27T05:16:17.100Z,18.47
2016-10-27T05:16:49.427Z,18.41
2016-10-27T05:17:21.753Z,18.45
2016-10-27T05:17:54.074Z,18.44
2016-10-27T05:18:26.401Z,18.44
2016-10-27T05:18:58.725Z,18.42
2016-10-27T05:19:31.092Z,18.42
2016-10-27T05:20:03.421Z,18.42
2016-10-27T05:20:35.752Z,18.41
2016-10-27T05:21:08.081Z,18.45
2016-10-27T05:21:40.396Z,18.45
2016-10-27T05:22:12.708Z,18.5
2016-10-27T05:22:45.040Z,18.44
2016-10-27T05:23:17.370Z,18.41
2016-10-27T05:23:49.701Z,18.42
2016-10-27T05:24:22.042Z,18.47
2016-10-27T05:24:54.376Z,18.51
2016-10-27T05:25:26.704Z,18.41
2016-10-27T05:25:59.029Z,18.44
2016-10-27T05:26:31.341Z,18.45
2016-10-27T05:27:03.661Z,18.45
2016-10-27T05:27:36.029Z,18.41
2016-10-27T05:28:08.347Z,18.42
2016-10-27T05:28:40.675Z,18.41
2016-10-27T05:29:13.034Z,18.38
2016-10-27T05:29:45.370Z,18.39
2016-10-27T05:30:17.685Z,18.44
2016-10-27T05:30:50.020Z,18.47
2016-10-27T05:31:22.365Z,18.49
2016-10-27T05:31:54.726Z,18.41
2016-10-27T05:32:27.038Z,18.5
2016-10-27T05:32:59.367Z,18.45
2016-10-27T05:33:31.693Z,18.45
2016-10-27T05:34:04.012Z,18.45
2016-10-27T05:34:37.842Z,18.44
2016-10-27T05:35:10.181Z,18.42
2016-10-27T05:35:42.537Z,18.41
2016-10-27T05:36:14.902Z,18.42
2016-10-27T05:36:47.229Z,18.45
2016-10-27T05:37:19.557Z,18.49
2016-10-27T05:37:51.891Z,18.39
2016-10-27T05:38:24.249Z,18.45
2016-10-27T05:38:56.576Z,18.42
2016-10-27T05:39:28.911Z,18.45
2016-10-27T05:40:01.251Z,18.45
2016-10-27T05:40:33.574Z,18.42
2016-10-27T05:41:05.899Z,18.47
2016-10-27T05:41:38.240Z,18.41
2016-10-27T05:42:10.561Z,18.47
2016-10-27T05:42:42.904Z,18.44
2016-10-27T05:43:15.242Z,18.47
2016-10-27T05:43:47.560Z,18.44
2016-10-27T05:44:21.630Z,18.49
2016-10-27T05:44:55.267Z,18.49
2016-10-27T05:45:28.483Z,18.42
2016-10-27T05:46:02.860Z,18.42
2016-10-27T05:46:36.459Z,18.44
2016-10-27T05:47:10.180Z,18.44
2016-10-27T05:47:43.765Z,18.45
2016-10-27T05:48:17.400Z,18.45
2016-10-27T05:48:50.587Z,18.47
2016-10-27T05:49:22.920Z,18.47
2016-10-27T05:49:55.275Z,18.47
2016-10-27T05:50:27.614Z,18.45
2016-10-27T05:51:00.198Z,18.49
2016-10-27T05:51:32.599Z,18.45
2016-10-27T05:52:05.133Z,18.45
2016-10-27T05:52:37.732Z,18.47
2016-10-27T05:53:10.291Z,18.47
2016-10-27T05:53:42.850Z,18.47
2016-10-27T05:54:15.442Z,18.49
2016-10-27T05:54:47.994Z,18.49
2016-10-27T05:55:20.537Z,18.47
2016-10-27T05:55:52.859Z,18.41
2016-10-27T05:56:25.275Z,18.5
2016-10-27T05:56:58.323Z,18.45
2016-10-27T05:57:30.629Z,18.47
2016-10-27T05:58:03.856Z,18.42
2016-10-27T05:58:36.167Z,18.42
2016-10-27T05:59:08.482Z,18.47
2016-10-27T05:59:40.832Z,18.45
2016-10-27T06:00:13.160Z,18.47
2016-10-27T06:00:45.483Z,18.51
2016-10-27T06:01:17.821Z,18.49
2016-10-27T06:01:50.202Z,18.47
2016-10-27T06:02:22.934Z,18.5
2016-10-27T06:02:55.428Z,18.45
2016-10-27T06:03:27.893Z,18.45
2016-10-27T06:04:01.317Z,18.47
2016-10-27T06:04:34.345Z,18.44
2016-10-27T06:05:07.077Z,18.49
2016-10-27T06:05:40.436Z,18.5
2016-10-27T06:06:13.409Z,18.47
2016-10-27T06:06:46.506Z,18.49
2016-10-27T06:07:20.430Z,18.47
2016-10-27T06:07:53.091Z,18.44
2016-10-27T06:08:26.066Z,18.45
2016-10-27T06:08:59.209Z,18.53
2016-10-27T06:09:31.848Z,18.49
2016-10-27T06:10:04.238Z,18.49
2016-10-27T06:10:36.568Z,18.49
2016-10-27T06:11:08.972Z,18.45
2016-10-27T06:11:47.947Z,18.47
2016-10-27T06:12:20.309Z,18.51
2016-10-27T06:12:52.635Z,18.51
2016-10-27T06:13:25.747Z,18.41
2016-10-27T06:13:58.062Z,18.5
2016-10-27T06:14:30.476Z,18.44
2016-10-27T06:15:03.324Z,18.5
2016-10-27T06:15:35.996Z,18.54
2016-10-27T06:16:08.907Z,18.51
2016-10-27T06:16:42.069Z,18.53
2016-10-27T06:17:14.827Z,18.45
2016-10-27T06:17:47.304Z,18.54
2016-10-27T06:18:19.652Z,18.49
2016-10-27T06:18:51.978Z,18.54
2016-10-27T06:19:24.300Z,18.5
2016-10-27T06:19:56.630Z,18.53
2016-10-27T06:20:28.958Z,18.53
2016-10-27T06:21:01.301Z,18.54
2016-10-27T06:21:33.672Z,18.53
2016-10-27T06:22:06.063Z,18.47
2016-10-27T06:22:38.383Z,18.51
2016-10-27T06:23:10.734Z,18.53
2016-10-27T06:23:43.050Z,18.5
2016-10-27T06:24:15.386Z,18.53
2016-10-27T06:24:47.754Z,18.51
2016-10-27T06:25:20.908Z,18.5
2016-10-27T06:25:53.342Z,18.45
2016-10-27T06:26:25.684Z,18.47
2016-10-27T06:26:59.957Z,18.54
2016-10-27T06:27:33.357Z,18.51
2016-10-27T06:28:06.854Z,18.45
2016-10-27T06:28:39.183Z,18.51
2016-10-27T06:29:12.358Z,18.51
2016-10-27T06:29:45.050Z,18.51
2016-10-27T06:30:17.391Z,18.51
2016-10-27T06:30:49.868Z,18.51
2016-10-27T06:31:22.231Z,18.54
2016-10-27T06:31:54.554Z,18.53
2016-10-27T06:32:26.886Z,18.51
2016-10-27T06:32:59.223Z,18.49
2016-10-27T06:33:31.545Z,18.54
2016-10-27T06:34:03.905Z,18.5
2016-10-27T06:34:36.220Z,18.56
2016-10-27T06:35:08.590Z,18.54
2016-10-27T06:35:40.952Z,18.45
2016-10-27T06:36:13.291Z,18.53
2016-10-27T06:36:45.617Z,18.51
2016-10-27T06:37:17.987Z,18.54
2016-10-27T06:37:50.323Z,18.56
2016-10-27T06:38:22.656Z,18.5
2016-10-27T06:38:54.987Z,18.51
2016-10-27T06:39:27.409Z,18.53
2016-10-27T06:39:59.745Z,18.51
2016-10-27T06:40:32.082Z,18.57
2016-10-27T06:41:04.480Z,18.54
2016-10-27T06:41:36.843Z,18.54
2016-10-27T06:42:09.207Z,18.5
2016-10-27T06:42:41.526Z,18.51
2016-10-27T06:43:13.858Z,18.56
2016-10-27T06:43:46.198Z,18.56
2016-10-27T06:44:18.507Z,18.56
2016-10-27T06:44:50.831Z,18.54
2016-10-27T06:45:23.154Z,18.51
2016-10-27T06:45:56.316Z,18.56
2016-10-27T06:46:28.671Z,18.54
2016-10-27T06:47:00.975Z,18.56
2016-10-27T06:47:33.324Z,18.6
2016-10-27T06:48:05.736Z,18.54
2016-10-27T06:48:38.227Z,18.51
2016-10-27T06:49:10.556Z,18.56
2016-10-27T06:49:42.895Z,18.59
2016-10-27T06:50:15.238Z,18.57
2016-10-27T06:50:47.557Z,18.57
2016-10-27T06:51:19.878Z,18.57
2016-10-27T06:51:52.204Z,18.53
2016-10-27T06:52:24.554Z,18.57
2016-10-27T06:52:56.971Z,18.61
2016-10-27T06:53:30.874Z,18.56
2016-10-27T06:54:04.369Z,18.6
2016-10-27T06:54:41.868Z,18.57
2016-10-27T06:55:17.363Z,18.6
2016-10-27T06:55:50.872Z,18.59
2016-10-27T06:56:25.403Z,18.6
2016-10-27T06:56:58.249Z,18.57
2016-10-27T06:58:50.892Z,18.65
2016-10-27T06:59:23.214Z,18.66